createdAt,value
2022-10-25T00:04:37.652Z,3.70
2022-10-25T00:09:39.583Z,3.47
2022-10-25T00:14:41.244Z,3.67
2022-10-25T00:19:42.922Z,3.15
2022-10-25T00:24:45.109Z,3.90
2022-10-25T00:29:46.797Z,3.30
2022-10-25T00:34:48.574Z,3.38
2022-10-25T00:39:50.352Z,3.42
2022-10-25T00:44:55.044Z,3.75
2022-10-25T00:50:01.435Z,3.33
2022-10-25T00:55:06.378Z,3.58
2022-10-25T01:00:09.238Z,3.30
2022-10-25T01:05:11.095Z,3.38
2022-10-25T01:10:13.358Z,3.35
2022-10-25T01:15:15.094Z,3.70
2022-10-25T01:20:40.786Z,3.35
2022-10-25T01:26:01.273Z,3.30
2022-10-25T01:31:38.552Z,3.33
2022-10-25T01:36:54.748Z,3.05
2022-10-25T01:41:59.224Z,3.65
2022-10-25T01:47:24.300Z,3.35
2022-10-25T01:52:26.183Z,3.28
2022-10-25T01:58:08.135Z,3.22
2022-10-25T02:03:28.470Z,3.70
2022-10-25T02:08:35.835Z,3.70
2022-10-25T02:14:04.328Z,4.13
2022-10-25T02:19:09.517Z,4.75
2022-10-25T02:24:19.070Z,4.03
2022-10-25T02:29:22.653Z,3.83
2022-10-25T02:34:24.610Z,4.50
2022-10-25T02:39:31.275Z,4.00
2022-10-25T02:44:33.518Z,4.20
2022-10-25T02:49:35.219Z,3.92
2022-10-25T02:54:36.887Z,3.75
2022-10-25T02:59:38.499Z,3.75
2022-10-25T03:04:40.139Z,3.95
2022-10-25T03:09:41.833Z,4.15
2022-10-25T03:14:43.929Z,4.60
2022-10-25T03:19:45.559Z,4.60
2022-10-25T03:24:47.181Z,5.97
2022-10-25T03:29:48.822Z,4.95
2022-10-25T03:34:50.514Z,4.63
2022-10-25T03:39:54.108Z,4.70
2022-10-25T03:44:55.741Z,4.93
2022-10-25T03:49:57.384Z,6.68
2022-10-25T03:54:59.052Z,6.43
2022-10-25T04:00:00.727Z,8.40
2022-10-25T04:05:02.411Z,5.38
2022-10-25T04:10:04.808Z,5.40
2022-10-25T04:15:07.118Z,5.63
2022-10-25T04:20:09.372Z,5.53
2022-10-25T04:25:11.071Z,5.20
2022-10-25T04:30:12.811Z,4.97
2022-10-25T04:35:14.971Z,6.55
2022-10-25T04:40:19.013Z,5.15
2022-10-25T04:45:23.039Z,4.82
2022-10-25T04:50:24.670Z,5.03
2022-10-25T04:55:26.284Z,4.78
2022-10-25T05:00:28.676Z,5.20
2022-10-25T05:05:30.311Z,5.20
2022-10-25T05:10:31.944Z,5.05
2022-10-25T05:15:33.614Z,5.00
2022-10-25T05:20:35.223Z,5.65
2022-10-25T05:25:36.875Z,5.10
2022-10-25T05:30:44.419Z,4.97
2022-10-25T05:35:46.053Z,4.65
2022-10-25T05:40:55.657Z,4.70
2022-10-25T05:46:11.908Z,3.83
2022-10-25T05:51:32.544Z,4.10
2022-10-25T05:56:36.621Z,4.68
2022-10-25T06:01:43.901Z,4.45
2022-10-25T06:06:47.095Z,4.30
2022-10-25T06:11:48.838Z,4.03
2022-10-25T06:16:50.617Z,5.47
2022-10-25T06:21:54.449Z,4.28
2022-10-25T06:26:56.307Z,4.50
2022-10-25T06:31:58.079Z,4.20
2022-10-25T06:36:59.846Z,4.35
2022-10-25T06:42:01.599Z,3.47
2022-10-25T06:47:18.563Z,3.08
2022-10-25T06:52:20.262Z,3.10
2022-10-25T06:57:21.971Z,2.85
2022-10-25T07:02:23.801Z,2.50
2022-10-25T07:07:25.545Z,3.22
2022-10-25T07:12:27.233Z,2.28
2022-10-25T07:17:28.871Z,2.00
2022-10-25T07:22:30.527Z,2.80
2022-10-25T07:27:33.132Z,2.90
2022-10-25T07:32:38.813Z,1.80
2022-10-25T07:37:43.292Z,2.40
2022-10-25T07:42:44.968Z,2.50
2022-10-25T07:47:46.811Z,1.95
2022-10-25T07:52:48.685Z,2.00
2022-10-25T07:57:50.399Z,1.80
2022-10-25T08:02:52.183Z,2.08
2022-10-25T08:07:54.054Z,1.75
2022-10-25T08:12:56.668Z,1.98
2022-10-25T08:18:02.569Z,2.85
2022-10-25T08:23:04.298Z,1.60
2022-10-25T08:28:06.126Z,2.03
2022-10-25T08:33:11.387Z,1.30
2022-10-25T08:38:13.372Z,1.65
2022-10-25T08:43:24.717Z,1.27
2022-10-25T08:48:32.312Z,1.30
2022-10-25T08:53:42.411Z,1.10
2022-10-25T08:58:51.310Z,1.20
2022-10-25T09:03:53.090Z,1.00
2022-10-25T09:09:00.745Z,1.30
2022-10-25T09:14:21.741Z,1.25
2022-10-25T09:19:32.983Z,1.27
2022-10-25T09:24:35.025Z,1.10
2022-10-25T09:29:43.476Z,1.20
2022-10-25T09:34:45.701Z,1.17
2022-10-25T09:39:53.100Z,1.30
2022-10-25T09:45:00.914Z,1.15
2022-10-25T09:50:06.834Z,1.17
2022-10-25T09:55:11.741Z,1.05
2022-10-25T10:00:14.996Z,1.00
2022-10-25T10:05:19.436Z,1.25
2022-10-25T10:10:26.217Z,1.30
2022-10-25T10:15:30.926Z,1.10
2022-10-25T10:20:32.631Z,1.20
2022-10-25T10:25:34.399Z,1.20
2022-10-25T10:30:38.899Z,1.20
2022-10-25T10:35:40.617Z,1.00
2022-10-25T10:40:42.395Z,1.00
2022-10-25T10:45:51.265Z,0.80
2022-10-25T10:50:53.502Z,0.82
2022-10-25T10:56:06.672Z,1.00
2022-10-25T11:01:29.075Z,1.17
2022-10-25T11:06:35.444Z,0.90
2022-10-25T11:11:37.126Z,1.17
2022-10-25T11:16:59.434Z,1.00
2022-10-25T11:22:32.946Z,0.90
2022-10-25T11:28:00.392Z,1.17
2022-10-25T11:33:23.337Z,1.23
2022-10-25T11:38:41.190Z,0.90
2022-10-25T11:43:59.253Z,0.90
2022-10-25T11:49:31.005Z,0.77
2022-10-25T11:54:49.354Z,0.98
2022-10-25T12:00:35.592Z,0.90
2022-10-25T12:06:01.934Z,0.82
2022-10-25T12:11:13.823Z,1.00
2022-10-25T12:16:20.832Z,0.93
2022-10-25T12:21:27.859Z,0.60
2022-10-25T12:26:35.106Z,0.98
2022-10-25T12:31:42.272Z,0.90
2022-10-25T12:36:56.586Z,1.00
2022-10-25T12:42:06.315Z,0.75
2022-10-25T12:47:31.764Z,1.05
2022-10-25T12:52:57.574Z,0.95
2022-10-25T12:58:23.863Z,0.93
2022-10-25T13:03:36.578Z,0.85
2022-10-25T13:08:40.472Z,1.13
2022-10-25T13:14:01.086Z,1.08
2022-10-25T13:24:51.968Z,1.40
2022-10-25T13:30:11.244Z,0.93
2022-10-25T13:35:39.101Z,0.90
2022-10-25T13:40:40.917Z,1.00
2022-10-25T13:45:45.237Z,0.82
2022-10-25T13:50:54.267Z,1.10
2022-10-25T13:55:57.877Z,0.90
2022-10-25T14:01:18.313Z,0.80
2022-10-25T14:06:41.107Z,1.08
2022-10-25T14:11:52.519Z,0.95
2022-10-25T14:17:17.780Z,1.50
2022-10-25T14:22:38.211Z,1.00
2022-10-25T14:27:40.009Z,0.90
2022-10-25T14:32:54.678Z,1.10
2022-10-25T14:38:22.985Z,1.38
2022-10-25T14:43:33.968Z,1.20
2022-10-25T14:48:36.129Z,1.30
2022-10-25T14:53:47.537Z,0.90
2022-10-25T14:58:49.912Z,1.13
2022-10-25T15:03:54.405Z,1.20
2022-10-25T15:09:29.024Z,1.10
2022-10-25T15:14:21.913Z,1.13
2022-10-25T15:19:23.678Z,1.63
2022-10-25T15:24:27.520Z,1.30
2022-10-25T15:34:58.891Z,1.27
2022-10-25T15:40:01.117Z,1.40
2022-10-25T15:45:04.513Z,2.00
2022-10-25T15:50:18.140Z,1.50
2022-10-25T15:55:21.825Z,1.50
2022-10-25T16:00:28.004Z,2.03
2022-10-25T16:05:36.042Z,1.70
2022-10-25T16:10:37.842Z,1.60
2022-10-25T16:15:39.545Z,3.22
2022-10-25T16:20:41.307Z,2.15
2022-10-25T16:25:43.217Z,2.10
2022-10-25T16:30:46.759Z,1.92
2022-10-25T16:35:48.387Z,1.90
2022-10-25T16:40:51.147Z,2.60
2022-10-25T16:45:52.841Z,2.40
2022-10-25T16:50:54.510Z,3.10
2022-10-25T16:55:56.578Z,2.70
2022-10-25T17:00:58.750Z,2.80
2022-10-25T17:06:04.786Z,2.63
2022-10-25T17:11:18.098Z,3.20
2022-10-25T17:16:19.783Z,4.18
2022-10-25T17:21:22.126Z,3.60
2022-10-25T17:26:23.873Z,3.33
2022-10-25T17:31:26.368Z,3.13
2022-10-25T17:36:29.231Z,3.63
2022-10-25T17:41:30.931Z,3.50
2022-10-25T17:46:32.663Z,4.45
2022-10-25T17:51:35.645Z,3.85
2022-10-25T17:56:37.376Z,3.78
2022-10-25T18:01:40.538Z,3.38
2022-10-25T18:06:42.381Z,3.30
2022-10-25T18:11:44.790Z,4.15
2022-10-25T18:16:46.493Z,4.38
2022-10-25T18:21:48.154Z,5.10
2022-10-25T18:26:52.651Z,4.38
2022-10-25T18:31:54.353Z,3.95
2022-10-25T18:36:56.033Z,5.80
2022-10-25T18:41:58.645Z,4.82
2022-10-25T18:47:00.374Z,3.83
2022-10-25T18:52:02.077Z,5.07
2022-10-25T18:57:03.804Z,4.88
2022-10-25T19:02:05.580Z,4.85
2022-10-25T19:07:07.279Z,4.93
2022-10-25T19:12:08.983Z,6.13
2022-10-25T19:17:10.913Z,5.75
2022-10-25T19:22:14.612Z,6.03
2022-10-25T19:27:16.455Z,6.50
2022-10-25T19:32:18.212Z,5.85
2022-10-25T19:37:19.933Z,6.45
2022-10-25T19:42:21.671Z,6.43
2022-10-25T19:47:23.406Z,6.43
2022-10-25T19:52:25.090Z,6.55
2022-10-25T19:57:26.793Z,6.47
2022-10-25T20:02:29.835Z,7.20
2022-10-25T20:07:54.437Z,6.10
2022-10-25T20:12:54.541Z,6.95
2022-10-25T20:17:56.175Z,6.15
2022-10-25T20:22:57.863Z,5.85
2022-10-25T20:28:02.371Z,5.60
2022-10-25T20:33:06.214Z,5.57
2022-10-25T20:38:11.904Z,5.90
2022-10-25T20:43:14.420Z,9.10
2022-10-25T20:48:16.104Z,5.75
2022-10-25T20:53:18.051Z,5.47
2022-10-25T20:58:21.643Z,5.05
2022-10-25T21:03:25.452Z,6.28
2022-10-25T21:08:27.483Z,5.57
2022-10-25T21:13:34.840Z,5.97
2022-10-25T21:18:37.283Z,5.93
2022-10-25T21:23:39.046Z,5.75
2022-10-25T21:28:41.645Z,6.20
2022-10-25T21:33:50.025Z,6.53
2022-10-25T21:38:53.986Z,7.35
2022-10-25T21:43:57.053Z,6.50
2022-10-25T21:48:58.777Z,6.75
2022-10-25T21:54:01.321Z,6.72
2022-10-25T21:59:03.176Z,6.25
2022-10-25T22:04:04.927Z,6.32
2022-10-25T22:09:06.870Z,6.28
2022-10-25T22:14:12.240Z,6.72
2022-10-25T22:19:17.546Z,6.85
2022-10-25T22:24:19.372Z,6.00
2022-10-25T22:29:21.082Z,6.53
2022-10-25T22:34:22.758Z,6.88
2022-10-25T22:39:24.583Z,6.35
2022-10-25T22:44:26.226Z,5.97
2022-10-25T22:49:27.924Z,6.45
2022-10-25T22:54:29.597Z,6.38
2022-10-25T22:59:31.265Z,6.25
2022-10-25T23:04:32.948Z,6.40
2022-10-25T23:09:34.603Z,6.25
2022-10-25T23:14:36.315Z,6.10
2022-10-25T23:19:37.980Z,5.88
2022-10-25T23:24:39.770Z,6.38
2022-10-25T23:29:41.508Z,6.07
2022-10-25T23:34:43.176Z,5.65
2022-10-25T23:39:44.846Z,6.50
2022-10-25T23:44:46.501Z,6.43
2022-10-25T23:49:48.145Z,5.72
2022-10-25T23:54:49.808Z,6.25
2022-10-25T23:59:51.975Z,5.60
